Time;durP1;ratioP1;P1;durP2;ratioP2;P2;SDS_P1;SDS_P2;PMS_P1;PMS_P2;Temp;Humidity;BMP_temperature;BMP_pressure;BME280_temperature;BME280_humidity;BME280_pressure;Samples;Min_cycle;Max_cycle;Signal;HPM_P1;HPM_P2
2022/03/26 00:01:30;;;;;;;47.42;29.88;;;;;;;;;;4970739;28;20134;-69
2022/03/26 00:03:56;;;;;;;50.40;29.33;;;;;;;;;;4972766;28;20066;-69
2022/03/26 00:06:22;;;;;;;41.83;28.50;;;;;;;;;;4962758;28;20497;-69
2022/03/26 00:08:49;;;;;;;47.70;29.27;;;;;;;;;;4973525;28;20043;-70
2022/03/26 00:11:15;;;;;;;49.22;31.13;;;;;;;;;;4972611;28;20109;-69
2022/03/26 00:13:41;;;;;;;50.65;30.48;;;;;;;;;;4972435;28;20557;-69
2022/03/26 00:16:07;;;;;;;51.25;31.45;;;;;;;;;;4971738;28;20486;-69
2022/03/26 00:18:33;;;;;;;55.38;30.73;;;;;;;;;;4987487;28;20130;-69
2022/03/26 00:21:00;;;;;;;50.92;32.97;;;;;;;;;;4969960;28;20051;-68
2022/03/26 00:23:26;;;;;;;51.72;33.30;;;;;;;;;;4971382;28;20546;-68
2022/03/26 00:25:52;;;;;;;47.47;30.38;;;;;;;;;;4971548;28;20094;-69
2022/03/26 00:28:18;;;;;;;58.53;34.55;;;;;;;;;;4971771;28;20576;-70
2022/03/26 00:30:45;;;;;;;53.95;32.85;;;;;;;;;;4970818;28;20042;-69
2022/03/26 00:33:11;;;;;;;54.78;33.42;;;;;;;;;;4973082;28;20072;-69
2022/03/26 00:35:37;;;;;;;57.65;34.13;;;;;;;;;;4970718;28;20072;-70
2022/03/26 00:38:03;;;;;;;58.88;36.40;;;;;;;;;;4969447;28;20455;-69
2022/03/26 00:40:29;;;;;;;56.90;36.80;;;;;;;;;;4975110;28;20047;-69
2022/03/26 00:42:55;;;;;;;64.88;37.65;;;;;;;;;;4975991;28;20093;-69
2022/03/26 00:45:21;;;;;;;63.92;39.70;;;;;;;;;;4975440;28;20122;-69
2022/03/26 00:47:47;;;;;;;60.08;37.58;;;;;;;;;;4976386;28;20074;-69
2022/03/26 00:50:14;;;;;;;72.25;40.08;;;;;;;;;;4972939;28;20053;-69
2022/03/26 00:52:40;;;;;;;66.75;40.90;;;;;;;;;;4968481;28;20109;-69
2022/03/26 00:55:06;;;;;;;67.22;38.97;;;;;;;;;;4985103;28;20406;-68
2022/03/26 00:57:32;;;;;;;63.90;39.70;;;;;;;;;;4972710;28;20051;-69
2022/03/26 00:59:58;;;;;;;67.72;39.53;;;;;;;;;;4975674;28;20058;-69
2022/03/26 01:02:24;;;;;;;66.47;40.00;;;;;;;;;;4974492;28;20045;-69
2022/03/26 01:04:50;;;;;;;62.20;39.75;;;;;;;;;;4970946;28;20043;-69
2022/03/26 01:07:16;;;;;;;72.22;40.17;;;;;;;;;;4973685;28;20074;-68
2022/03/26 01:09:42;;;;;;;70.75;42.08;;;;;;;;;;4975493;28;20070;-68
2022/03/26 01:12:09;;;;;;;62.17;38.25;;;;;;;;;;4975420;28;20065;-69
2022/03/26 01:14:35;;;;;;;67.90;39.55;;;;;;;;;;4972748;28;20055;-69
2022/03/26 01:17:01;;;;;;;64.38;38.38;;;;;;;;;;4968827;28;20073;-70
2022/03/26 01:19:27;;;;;;;72.07;43.03;;;;;;;;;;4973827;28;20046;-69
2022/03/26 01:21:54;;;;;;;73.75;42.00;;;;;;;;;;4970461;28;20047;-69
2022/03/26 01:24:20;;;;;;;72.03;44.00;;;;;;;;;;4974809;28;20089;-69
2022/03/26 01:26:46;;;;;;;77.60;47.75;;;;;;;;;;4974712;28;20410;-69
2022/03/26 01:29:12;;;;;;;70.72;43.38;;;;;;;;;;4976405;28;20038;-69
2022/03/26 01:31:38;;;;;;;78.78;47.50;;;;;;;;;;4973891;28;20145;-69
2022/03/26 01:34:04;;;;;;;80.38;48.33;;;;;;;;;;4975891;28;20097;-69
2022/03/26 01:36:31;;;;;;;78.93;48.30;;;;;;;;;;4968380;28;20051;-69
2022/03/26 01:38:57;;;;;;;79.35;47.80;;;;;;;;;;4974752;28;20047;-70
2022/03/26 01:41:23;;;;;;;81.55;48.78;;;;;;;;;;4964492;28;20070;-69
2022/03/26 01:43:49;;;;;;;88.57;50.58;;;;;;;;;;4964915;28;20049;-70
2022/03/26 01:46:15;;;;;;;85.68;49.13;;;;;;;;;;4969947;28;20053;-69
2022/03/26 01:48:41;;;;;;;77.22;47.42;;;;;;;;;;4973124;28;20090;-69
2022/03/26 01:51:17;;;;;;;85.38;48.35;;;;;;;;;;4972202;28;20512;-69
2022/03/26 01:53:47;;;;;;;82.15;49.50;;;;;;;;;;4975597;28;20069;-70
2022/03/26 01:56:14;;;;;;;82.93;47.13;;;;;;;;;;4974377;28;20050;-69
2022/03/26 01:58:43;;;;;;;91.20;53.83;;;;;;;;;;4975684;28;20486;-70
2022/03/26 02:01:10;;;;;;;84.32;50.05;;;;;;;;;;4975226;28;20082;-70
2022/03/26 02:03:36;;;;;;;91.18;52.30;;;;;;;;;;4971969;28;20568;-69
2022/03/26 02:06:03;;;;;;;87.65;51.15;;;;;;;;;;4974737;28;20038;-69
2022/03/26 02:08:29;;;;;;;85.57;51.78;;;;;;;;;;4973296;28;20050;-68
2022/03/26 02:10:55;;;;;;;93.80;56.65;;;;;;;;;;4973023;28;20050;-69
2022/03/26 02:13:21;;;;;;;95.32;55.47;;;;;;;;;;4974145;28;20042;-69
2022/03/26 02:15:48;;;;;;;90.13;52.90;;;;;;;;;;4973591;28;20161;-69
2022/03/26 02:18:14;;;;;;;96.65;53.45;;;;;;;;;;4969682;28;20051;-68
2022/03/26 02:20:41;;;;;;;94.05;52.80;;;;;;;;;;4972710;28;20452;-68
2022/03/26 02:23:07;;;;;;;89.13;52.22;;;;;;;;;;4962854;28;20193;-68
2022/03/26 02:25:33;;;;;;;88.15;51.65;;;;;;;;;;4965440;28;20051;-69
2022/03/26 02:27:59;;;;;;;90.45;52.63;;;;;;;;;;4968590;28;20513;-69
2022/03/26 02:30:25;;;;;;;95.55;54.88;;;;;;;;;;4974702;28;20411;-69
2022/03/26 02:32:51;;;;;;;97.93;56.40;;;;;;;;;;4973868;28;20102;-69
2022/03/26 02:35:17;;;;;;;94.93;56.03;;;;;;;;;;4973974;28;20042;-69
2022/03/26 02:37:43;;;;;;;99.55;56.42;;;;;;;;;;4973010;28;20043;-69
2022/03/26 02:40:09;;;;;;;101.38;57.03;;;;;;;;;;4973724;28;20391;-69
2022/03/26 02:42:35;;;;;;;110.53;61.50;;;;;;;;;;4974210;28;20125;-69
2022/03/26 02:45:02;;;;;;;101.15;58.58;;;;;;;;;;4972576;28;20043;-69
2022/03/26 02:47:28;;;;;;;109.82;60.83;;;;;;;;;;4973951;28;20430;-69
2022/03/26 02:49:54;;;;;;;99.32;57.75;;;;;;;;;;4971033;28;20581;-69
2022/03/26 02:52:22;;;;;;;105.40;60.53;;;;;;;;;;4973972;28;20046;-69
2022/03/26 02:54:48;;;;;;;110.90;62.97;;;;;;;;;;4973054;28;20117;-69
2022/03/26 02:57:14;;;;;;;105.57;60.35;;;;;;;;;;4972630;28;20105;-69
2022/03/26 02:59:40;;;;;;;113.15;61.83;;;;;;;;;;4973784;28;20054;-69
2022/03/26 03:02:09;;;;;;;129.77;68.25;;;;;;;;;;4967577;28;20054;-69
2022/03/26 03:04:35;;;;;;;132.88;69.43;;;;;;;;;;4970840;28;20122;-69
2022/03/26 03:07:02;;;;;;;105.22;59.53;;;;;;;;;;4973513;28;20078;-70
2022/03/26 03:09:28;;;;;;;105.55;59.33;;;;;;;;;;4970008;28;20053;-69
2022/03/26 03:11:54;;;;;;;109.53;60.78;;;;;;;;;;4973432;28;20124;-69
2022/03/26 03:14:21;;;;;;;113.13;62.92;;;;;;;;;;4968311;28;20071;-70
2022/03/26 03:16:47;;;;;;;118.72;67.30;;;;;;;;;;4972657;28;20041;-70
2022/03/26 03:19:13;;;;;;;120.57;66.45;;;;;;;;;;4973284;28;20068;-69
2022/03/26 03:21:39;;;;;;;119.45;66.28;;;;;;;;;;4972834;28;20050;-68
2022/03/26 03:24:05;;;;;;;126.75;68.63;;;;;;;;;;4972638;28;20046;-68
2022/03/26 03:26:31;;;;;;;122.18;67.22;;;;;;;;;;4973189;28;20550;-69
2022/03/26 03:28:59;;;;;;;129.88;71.40;;;;;;;;;;4973303;28;20047;-69
2022/03/26 03:31:25;;;;;;;139.05;74.80;;;;;;;;;;4972868;28;20054;-69
2022/03/26 03:33:51;;;;;;;144.10;76.30;;;;;;;;;;4972334;28;20101;-69
2022/03/26 03:36:17;;;;;;;134.18;71.47;;;;;;;;;;4973094;28;20051;-69
2022/03/26 03:38:43;;;;;;;123.35;68.50;;;;;;;;;;4972880;28;20039;-69
2022/03/26 03:41:10;;;;;;;131.52;70.43;;;;;;;;;;4970413;28;20046;-69
2022/03/26 03:43:36;;;;;;;136.57;70.90;;;;;;;;;;4972624;28;20527;-69
2022/03/26 03:46:02;;;;;;;149.48;73.90;;;;;;;;;;4972991;28;20093;-70
2022/03/26 03:48:28;;;;;;;123.60;66.60;;;;;;;;;;4972527;28;20046;-69
2022/03/26 03:50:54;;;;;;;145.93;71.80;;;;;;;;;;4966190;28;20423;-68
2022/03/26 03:53:20;;;;;;;130.90;68.78;;;;;;;;;;4971490;28;20049;-69
2022/03/26 03:55:46;;;;;;;137.32;69.60;;;;;;;;;;4974425;28;20046;-69
2022/03/26 03:58:12;;;;;;;138.93;74.40;;;;;;;;;;4953167;28;20419;-69
2022/03/26 04:00:38;;;;;;;140.43;75.57;;;;;;;;;;4954124;28;20054;-69
2022/03/26 04:03:04;;;;;;;143.48;71.82;;;;;;;;;;4952215;28;20054;-68
2022/03/26 04:05:30;;;;;;;132.88;69.47;;;;;;;;;;4953377;28;20050;-69
2022/03/26 04:07:56;;;;;;;135.57;70.55;;;;;;;;;;4952271;28;20428;-69
2022/03/26 04:10:22;;;;;;;137.93;70.45;;;;;;;;;;4950530;28;20039;-69
2022/03/26 04:12:48;;;;;;;143.20;73.35;;;;;;;;;;4951205;28;20050;-69
2022/03/26 04:15:14;;;;;;;151.65;75.07;;;;;;;;;;4939633;28;20061;-69
2022/03/26 04:17:41;;;;;;;131.07;68.65;;;;;;;;;;4947420;28;20130;-69
2022/03/26 04:20:09;;;;;;;135.60;70.75;;;;;;;;;;4948209;28;20055;-69
2022/03/26 04:22:38;;;;;;;137.50;68.43;;;;;;;;;;4952001;28;20050;-69
2022/03/26 04:25:05;;;;;;;135.15;70.53;;;;;;;;;;4948976;28;20486;-69
2022/03/26 04:27:31;;;;;;;136.02;67.97;;;;;;;;;;4931220;28;20043;-69
2022/03/26 04:29:57;;;;;;;131.40;69.95;;;;;;;;;;4931373;28;20554;-69
2022/03/26 04:32:23;;;;;;;146.30;71.20;;;;;;;;;;4954161;28;20063;-69
2022/03/26 04:34:49;;;;;;;141.43;70.63;;;;;;;;;;4957297;28;20075;-69
2022/03/26 04:37:15;;;;;;;140.10;69.40;;;;;;;;;;4955833;28;20415;-69
2022/03/26 04:39:41;;;;;;;131.15;64.38;;;;;;;;;;4956874;28;20053;-69
2022/03/26 04:42:08;;;;;;;135.95;63.40;;;;;;;;;;4956164;28;20479;-69
2022/03/26 04:44:34;;;;;;;127.78;64.20;;;;;;;;;;4957691;28;20125;-69
2022/03/26 04:47:00;;;;;;;125.25;64.38;;;;;;;;;;4955576;28;20153;-69
2022/03/26 04:49:26;;;;;;;114.03;59.20;;;;;;;;;;4956642;28;20054;-69
2022/03/26 04:51:52;;;;;;;115.03;58.28;;;;;;;;;;4939073;29;20051;-69
2022/03/26 04:54:18;;;;;;;113.30;57.65;;;;;;;;;;4955325;28;20101;-69
2022/03/26 04:56:44;;;;;;;124.03;63.28;;;;;;;;;;4964333;28;20059;-69
2022/03/26 04:59:10;;;;;;;112.68;57.90;;;;;;;;;;4978581;28;20415;-69
2022/03/26 05:01:36;;;;;;;131.05;62.05;;;;;;;;;;4976323;28;20055;-69
2022/03/26 05:04:02;;;;;;;127.78;64.40;;;;;;;;;;4974951;28;20046;-69
2022/03/26 05:06:29;;;;;;;137.52;67.78;;;;;;;;;;4975145;28;20042;-70
2022/03/26 05:08:55;;;;;;;139.52;69.32;;;;;;;;;;4972238;28;20047;-70
2022/03/26 05:11:21;;;;;;;147.77;71.35;;;;;;;;;;4973337;28;20039;-69
2022/03/26 05:13:47;;;;;;;152.18;75.90;;;;;;;;;;4974537;28;20047;-69
2022/03/26 05:16:13;;;;;;;136.25;68.68;;;;;;;;;;4971409;28;20098;-69
2022/03/26 05:18:40;;;;;;;143.82;72.25;;;;;;;;;;4974027;28;20046;-69
2022/03/26 05:21:07;;;;;;;156.30;77.95;;;;;;;;;;4974153;28;20511;-69
2022/03/26 05:23:34;;;;;;;159.98;79.85;;;;;;;;;;4971932;28;20494;-69
2022/03/26 05:26:00;;;;;;;159.88;79.13;;;;;;;;;;4975328;28;20045;-69
2022/03/26 05:28:26;;;;;;;148.57;71.38;;;;;;;;;;4966508;28;20050;-69
2022/03/26 05:30:52;;;;;;;143.77;70.95;;;;;;;;;;4975057;28;20047;-69
2022/03/26 05:33:18;;;;;;;138.73;69.43;;;;;;;;;;4967931;28;20054;-69
2022/03/26 05:35:44;;;;;;;142.43;68.63;;;;;;;;;;4975020;28;20059;-69
2022/03/26 05:38:10;;;;;;;141.38;69.55;;;;;;;;;;4974808;28;20098;-69
2022/03/26 05:40:36;;;;;;;140.38;67.85;;;;;;;;;;4973934;28;20047;-69
2022/03/26 05:43:03;;;;;;;136.07;66.53;;;;;;;;;;4975153;28;20046;-69
2022/03/26 05:45:29;;;;;;;141.43;67.80;;;;;;;;;;4975189;28;20047;-69
2022/03/26 05:48:01;;;;;;;143.73;72.60;;;;;;;;;;4973721;28;20069;-69
2022/03/26 05:50:28;;;;;;;149.57;71.78;;;;;;;;;;4973940;28;20050;-69
2022/03/26 05:52:54;;;;;;;148.02;74.10;;;;;;;;;;4972691;28;20171;-69
2022/03/26 05:55:20;;;;;;;147.50;73.00;;;;;;;;;;4972880;28;20071;-69
2022/03/26 05:57:46;;;;;;;144.30;71.38;;;;;;;;;;4968337;28;20059;-69
2022/03/26 06:00:12;;;;;;;150.25;74.57;;;;;;;;;;4973470;28;20039;-68
2022/03/26 06:02:38;;;;;;;149.05;75.05;;;;;;;;;;4973950;28;20398;-69
2022/03/26 06:05:04;;;;;;;152.45;76.95;;;;;;;;;;4972635;28;20046;-69
2022/03/26 06:07:31;;;;;;;144.73;75.82;;;;;;;;;;4968299;28;20082;-70
2022/03/26 06:09:57;;;;;;;144.43;74.00;;;;;;;;;;4973841;28;20051;-70
2022/03/26 06:12:23;;;;;;;137.73;75.80;;;;;;;;;;4972703;28;20066;-70
2022/03/26 06:14:49;;;;;;;140.35;74.78;;;;;;;;;;4974924;28;20413;-70
2022/03/26 06:17:15;;;;;;;124.80;73.10;;;;;;;;;;4973483;28;20105;-70
2022/03/26 06:19:42;;;;;;;127.85;73.80;;;;;;;;;;4973488;28;20053;-70
2022/03/26 06:22:08;;;;;;;126.85;72.75;;;;;;;;;;4974137;28;20042;-69
2022/03/26 06:24:35;;;;;;;146.98;80.68;;;;;;;;;;4973064;28;20042;-69
2022/03/26 06:27:01;;;;;;;139.88;80.15;;;;;;;;;;4970030;28;20047;-69
2022/03/26 06:29:27;;;;;;;134.30;80.13;;;;;;;;;;4973461;28;20473;-69
2022/03/26 06:31:53;;;;;;;136.77;80.50;;;;;;;;;;4974140;28;20093;-70
2022/03/26 06:34:22;;;;;;;134.55;79.47;;;;;;;;;;4974993;28;20068;-69
2022/03/26 06:36:48;;;;;;;125.63;75.80;;;;;;;;;;4973787;28;20078;-70
2022/03/26 06:39:14;;;;;;;133.65;81.85;;;;;;;;;;4974127;28;20106;-70
2022/03/26 06:41:40;;;;;;;126.88;79.00;;;;;;;;;;4974246;28;20050;-70
2022/03/26 06:44:08;;;;;;;128.20;80.22;;;;;;;;;;4974493;28;20359;-70
2022/03/26 06:46:35;;;;;;;127.03;79.30;;;;;;;;;;4969232;28;20145;-70
2022/03/26 06:49:01;;;;;;;120.63;77.90;;;;;;;;;;4961396;28;20058;-70
2022/03/26 06:51:27;;;;;;;122.80;77.00;;;;;;;;;;4974954;28;20073;-70
2022/03/26 06:53:53;;;;;;;123.35;78.63;;;;;;;;;;4971894;28;20047;-70
2022/03/26 06:56:19;;;;;;;117.85;76.88;;;;;;;;;;4973896;28;20072;-69
2022/03/26 06:58:45;;;;;;;120.35;78.75;;;;;;;;;;4963595;28;20070;-70
2022/03/26 07:01:11;;;;;;;115.00;76.40;;;;;;;;;;4973361;28;20042;-70
2022/03/26 07:03:37;;;;;;;123.03;78.10;;;;;;;;;;4978509;28;20074;-70
2022/03/26 07:06:04;;;;;;;120.05;77.95;;;;;;;;;;4963108;28;20071;-70
2022/03/26 07:08:30;;;;;;;114.95;77.60;;;;;;;;;;4967255;28;20051;-70
2022/03/26 07:10:56;;;;;;;120.80;79.90;;;;;;;;;;4972878;28;20042;-69
2022/03/26 07:13:22;;;;;;;109.82;76.65;;;;;;;;;;4973776;28;20074;-70
2022/03/26 07:15:48;;;;;;;112.18;77.25;;;;;;;;;;4971318;28;20038;-69
2022/03/26 07:18:15;;;;;;;113.53;77.18;;;;;;;;;;4964339;28;20170;-68
2022/03/26 07:20:41;;;;;;;116.63;74.78;;;;;;;;;;4962365;28;20051;-69
2022/03/26 07:23:07;;;;;;;106.88;72.53;;;;;;;;;;4976656;28;20042;-69
2022/03/26 07:25:34;;;;;;;105.72;74.55;;;;;;;;;;4976757;28;20038;-69
2022/03/26 07:28:00;;;;;;;112.60;76.82;;;;;;;;;;4973195;28;20134;-70
2022/03/26 07:30:26;;;;;;;104.28;71.50;;;;;;;;;;4969226;28;20043;-69
2022/03/26 07:32:53;;;;;;;119.07;77.45;;;;;;;;;;4969160;28;20054;-70
2022/03/26 07:35:19;;;;;;;105.35;73.55;;;;;;;;;;4968813;28;20387;-69
2022/03/26 07:37:45;;;;;;;103.85;74.65;;;;;;;;;;4961185;28;20047;-69
2022/03/26 07:40:12;;;;;;;105.95;73.70;;;;;;;;;;4957908;28;20039;-69
2022/03/26 07:42:38;;;;;;;106.47;72.97;;;;;;;;;;4974002;28;20118;-70
2022/03/26 07:45:05;;;;;;;101.43;72.55;;;;;;;;;;4967403;28;20121;-69
2022/03/26 07:47:31;;;;;;;99.13;69.72;;;;;;;;;;4965493;28;20414;-69
2022/03/26 07:49:57;;;;;;;98.20;67.28;;;;;;;;;;4973080;28;20043;-68
2022/03/26 07:52:23;;;;;;;91.70;63.75;;;;;;;;;;4971569;28;20046;-69
2022/03/26 07:54:49;;;;;;;93.05;62.08;;;;;;;;;;4972954;28;20058;-69
2022/03/26 07:57:15;;;;;;;89.15;63.45;;;;;;;;;;4973271;28;20498;-69
2022/03/26 07:59:41;;;;;;;85.38;60.97;;;;;;;;;;4973995;28;20043;-69
2022/03/26 08:02:07;;;;;;;86.15;59.60;;;;;;;;;;4973442;28;20109;-69
2022/03/26 08:04:35;;;;;;;85.90;59.58;;;;;;;;;;4971900;28;20047;-68
2022/03/26 08:07:01;;;;;;;89.43;61.13;;;;;;;;;;4974049;28;20047;-68
2022/03/26 08:09:27;;;;;;;83.47;58.28;;;;;;;;;;4973723;28;20066;-68
2022/03/26 08:11:53;;;;;;;84.15;58.33;;;;;;;;;;4974051;28;20054;-68
2022/03/26 08:14:19;;;;;;;78.25;56.47;;;;;;;;;;4972084;28;20047;-68
2022/03/26 08:16:45;;;;;;;80.57;55.25;;;;;;;;;;4973831;28;20061;-68
2022/03/26 08:19:11;;;;;;;78.78;53.50;;;;;;;;;;4972130;28;20042;-68
2022/03/26 08:21:37;;;;;;;74.72;50.65;;;;;;;;;;4970382;28;20086;-68
2022/03/26 08:24:03;;;;;;;71.43;50.58;;;;;;;;;;4972449;28;20130;-68
2022/03/26 08:26:29;;;;;;;72.65;50.75;;;;;;;;;;4984048;28;20150;-68
2022/03/26 08:28:57;;;;;;;75.45;51.40;;;;;;;;;;4959556;28;20050;-68
2022/03/26 08:31:24;;;;;;;66.90;44.95;;;;;;;;;;4972623;28;20078;-68
2022/03/26 08:33:50;;;;;;;64.95;41.40;;;;;;;;;;4972408;28;20043;-68
2022/03/26 08:36:17;;;;;;;62.05;39.65;;;;;;;;;;4971677;28;20046;-68
2022/03/26 08:38:45;;;;;;;58.25;39.00;;;;;;;;;;4968157;28;20122;-68
2022/03/26 08:41:11;;;;;;;60.85;39.47;;;;;;;;;;4973397;28;20534;-68
2022/03/26 08:43:37;;;;;;;75.15;41.22;;;;;;;;;;4973519;28;20085;-69
2022/03/26 08:46:04;;;;;;;64.38;40.78;;;;;;;;;;4973392;28;20126;-68
2022/03/26 08:48:30;;;;;;;65.28;40.58;;;;;;;;;;4973777;28;20065;-68
2022/03/26 08:50:56;;;;;;;63.85;39.63;;;;;;;;;;4973434;28;20126;-68
2022/03/26 08:53:22;;;;;;;55.85;34.75;;;;;;;;;;4973819;28;20097;-67
2022/03/26 08:55:49;;;;;;;57.00;35.95;;;;;;;;;;4973217;28;20046;-69
2022/03/26 08:58:17;;;;;;;51.97;33.83;;;;;;;;;;4971810;28;20421;-69
2022/03/26 09:00:47;;;;;;;61.10;35.97;;;;;;;;;;4976814;28;20082;-69
2022/03/26 09:03:13;;;;;;;58.88;36.17;;;;;;;;;;4977083;28;20095;-69
2022/03/26 09:05:39;;;;;;;62.45;37.70;;;;;;;;;;4977139;28;20035;-69
2022/03/26 09:08:05;;;;;;;55.20;35.38;;;;;;;;;;4977111;28;20053;-69
2022/03/26 09:10:32;;;;;;;55.67;34.47;;;;;;;;;;4976389;28;20042;-69
2022/03/26 09:12:58;;;;;;;48.45;32.67;;;;;;;;;;4977078;28;20076;-69
2022/03/26 09:15:24;;;;;;;56.42;33.78;;;;;;;;;;4977100;28;20540;-69
2022/03/26 09:17:50;;;;;;;51.05;34.17;;;;;;;;;;4972971;28;20073;-69
2022/03/26 09:20:16;;;;;;;52.53;35.22;;;;;;;;;;4977786;28;20050;-69
2022/03/26 09:22:42;;;;;;;48.35;33.30;;;;;;;;;;4977659;28;20062;-70
2022/03/26 09:25:08;;;;;;;51.22;35.78;;;;;;;;;;4976310;28;20046;-76
2022/03/26 09:27:34;;;;;;;47.28;32.60;;;;;;;;;;4984472;28;20039;-70
2022/03/26 09:30:01;;;;;;;49.95;33.33;;;;;;;;;;4975511;28;20621;-70
2022/03/26 09:32:27;;;;;;;61.63;35.45;;;;;;;;;;4976310;28;20043;-72
2022/03/26 09:34:53;;;;;;;47.38;32.33;;;;;;;;;;4976540;28;20482;-72
2022/03/26 09:37:19;;;;;;;45.13;29.92;;;;;;;;;;4976514;28;20178;-73
2022/03/26 09:39:45;;;;;;;44.95;31.75;;;;;;;;;;4982825;28;20499;-74
2022/03/26 09:42:11;;;;;;;45.13;29.35;;;;;;;;;;4985003;28;20448;-69
2022/03/26 09:44:38;;;;;;;45.42;31.33;;;;;;;;;;4982468;28;20057;-68
2022/03/26 09:47:08;;;;;;;39.50;28.58;;;;;;;;;;4984338;28;20047;-67
2022/03/26 09:49:34;;;;;;;37.70;27.67;;;;;;;;;;4963306;28;20051;-69
2022/03/26 09:52:05;;;;;;;42.13;30.23;;;;;;;;;;4974921;28;20486;-69
2022/03/26 09:54:31;;;;;;;43.42;29.98;;;;;;;;;;4979868;28;20073;-69
2022/03/26 09:56:57;;;;;;;35.60;25.52;;;;;;;;;;4979481;28;20055;-68
2022/03/26 09:59:24;;;;;;;34.33;24.40;;;;;;;;;;4979000;28;20066;-69
2022/03/26 10:01:50;;;;;;;44.33;29.98;;;;;;;;;;4978901;28;20493;-68
2022/03/26 10:04:17;;;;;;;39.92;28.85;;;;;;;;;;4978415;28;20043;-69
2022/03/26 10:06:50;;;;;;;32.95;22.92;;;;;;;;;;4978073;28;20408;-70
2022/03/26 10:09:36;;;;;;;36.63;26.88;;;;;;;;;;4978319;28;20084;-69
2022/03/26 10:12:06;;;;;;;38.80;26.85;;;;;;;;;;4972517;28;20125;-69
2022/03/26 10:14:43;;;;;;;35.70;26.80;;;;;;;;;;4969151;28;20043;-69
2022/03/26 10:17:18;;;;;;;37.80;25.73;;;;;;;;;;4965864;28;20065;-69
2022/03/26 10:19:49;;;;;;;34.22;24.90;;;;;;;;;;4956573;29;20071;-69
2022/03/26 10:22:32;;;;;;;36.30;25.38;;;;;;;;;;4956312;28;20086;-69
2022/03/26 10:24:59;;;;;;;32.70;24.55;;;;;;;;;;4956277;29;20059;-70
2022/03/26 10:27:25;;;;;;;35.85;24.67;;;;;;;;;;4955748;29;20446;-69
2022/03/26 10:29:53;;;;;;;38.05;26.73;;;;;;;;;;4967835;28;20047;-68
2022/03/26 10:35:10;;;;;;;34.60;22.00;;;;;;;;;;4975357;28;20047;-70
2022/03/26 10:37:44;;;;;;;30.00;21.58;;;;;;;;;;4975248;28;20047;-69
2022/03/26 10:40:20;;;;;;;29.13;22.08;;;;;;;;;;4975207;28;20050;-68
2022/03/26 10:42:52;;;;;;;22.27;16.45;;;;;;;;;;4975270;28;20045;-68
2022/03/26 10:45:18;;;;;;;25.45;15.93;;;;;;;;;;4974755;28;20053;-67
2022/03/26 10:47:44;;;;;;;17.83;13.05;;;;;;;;;;4970561;28;20047;-68
2022/03/26 10:50:14;;;;;;;21.20;14.60;;;;;;;;;;4975157;28;20553;-69
2022/03/26 10:52:40;;;;;;;20.65;15.10;;;;;;;;;;4974978;28;20076;-69
2022/03/26 10:55:16;;;;;;;20.58;15.18;;;;;;;;;;4974863;28;20514;-68
2022/03/26 10:57:46;;;;;;;20.38;15.02;;;;;;;;;;4973447;28;20054;-69
2022/03/26 11:00:16;;;;;;;22.40;15.77;;;;;;;;;;4975577;28;20043;-68
2022/03/26 11:02:43;;;;;;;23.45;16.65;;;;;;;;;;4973749;28;20043;-67
2022/03/26 11:05:09;;;;;;;25.73;15.10;;;;;;;;;;4973929;28;20517;-68
2022/03/26 11:07:36;;;;;;;27.35;15.77;;;;;;;;;;4972506;28;20049;-67
2022/03/26 11:10:04;;;;;;;25.00;17.23;;;;;;;;;;4974741;28;20050;-68
2022/03/26 11:12:31;;;;;;;22.33;17.20;;;;;;;;;;4973588;28;20494;-69
2022/03/26 11:14:58;;;;;;;27.35;17.33;;;;;;;;;;4973854;28;20090;-69
2022/03/26 11:17:43;;;;;;;24.30;17.13;;;;;;;;;;4973469;28;20137;-69
2022/03/26 11:20:09;;;;;;;23.52;15.75;;;;;;;;;;4971100;28;20414;-70
2022/03/26 11:22:54;;;;;;;23.42;16.83;;;;;;;;;;4971991;28;20055;-70
2022/03/26 11:25:39;;;;;;;19.42;15.40;;;;;;;;;;4974155;28;20129;-70
2022/03/26 11:28:05;;;;;;;23.17;14.32;;;;;;;;;;4974193;28;20438;-69
2022/03/26 11:30:31;;;;;;;21.77;12.95;;;;;;;;;;4974158;28;20054;-70
2022/03/26 11:33:08;;;;;;;19.25;13.82;;;;;;;;;;4965044;28;20043;-68
2022/03/26 11:35:34;;;;;;;18.15;14.05;;;;;;;;;;4954779;29;20055;-69
2022/03/26 11:38:02;;;;;;;18.52;13.45;;;;;;;;;;4973769;28;20074;-69
2022/03/26 11:40:41;;;;;;;18.17;12.90;;;;;;;;;;4974118;28;20042;-69
2022/03/26 11:43:07;;;;;;;18.25;13.52;;;;;;;;;;4973909;28;20043;-69
2022/03/26 11:51:24;;;;;;;15.93;11.60;;;;;;;;;;4973321;28;20453;-69
2022/03/26 11:53:58;;;;;;;16.27;11.10;;;;;;;;;;4974121;28;20051;-70
2022/03/26 11:56:31;;;;;;;16.10;10.68;;;;;;;;;;4973453;28;20066;-70
2022/03/26 11:59:05;;;;;;;21.10;11.10;;;;;;;;;;4972698;28;20101;-69
2022/03/26 12:01:41;;;;;;;13.45;10.07;;;;;;;;;;4973183;28;20039;-69
2022/03/26 12:04:10;;;;;;;13.82;9.07;;;;;;;;;;4972635;28;20066;-69
2022/03/26 12:06:41;;;;;;;16.20;9.90;;;;;;;;;;4961261;28;20066;-69
2022/03/26 12:09:10;;;;;;;14.07;9.75;;;;;;;;;;4972119;28;20046;-70
2022/03/26 12:11:36;;;;;;;12.73;9.07;;;;;;;;;;4979024;28;20078;-69
2022/03/26 12:14:06;;;;;;;14.68;9.50;;;;;;;;;;4954552;28;20050;-70
2022/03/26 12:16:50;;;;;;;16.48;9.45;;;;;;;;;;4961926;28;20090;-69
2022/03/26 12:19:35;;;;;;;12.50;8.52;;;;;;;;;;4972476;28;20457;-69
2022/03/26 12:22:20;;;;;;;13.48;8.27;;;;;;;;;;4973184;28;20077;-69
2022/03/26 12:24:46;;;;;;;14.05;8.05;;;;;;;;;;4973534;28;20505;-69
2022/03/26 12:27:13;;;;;;;16.25;7.57;;;;;;;;;;4973582;28;20038;-69
2022/03/26 12:29:39;;;;;;;11.15;7.90;;;;;;;;;;4973739;28;20126;-69
2022/03/26 12:32:06;;;;;;;17.52;8.48;;;;;;;;;;4973606;28;20039;-70
2022/03/26 12:34:32;;;;;;;12.38;7.93;;;;;;;;;;4975510;28;20054;-69
2022/03/26 12:37:02;;;;;;;15.98;7.88;;;;;;;;;;4976951;28;20055;-69
2022/03/26 12:39:28;;;;;;;12.65;8.02;;;;;;;;;;4976688;28;20066;-69
2022/03/26 12:41:55;;;;;;;11.55;7.55;;;;;;;;;;4976774;28;20043;-69
2022/03/26 12:44:22;;;;;;;11.88;6.60;;;;;;;;;;4977061;28;20051;-69
2022/03/26 12:46:49;;;;;;;12.90;8.02;;;;;;;;;;4976724;28;20050;-69
2022/03/26 12:49:21;;;;;;;13.52;7.75;;;;;;;;;;4976059;28;20058;-69
2022/03/26 12:51:51;;;;;;;19.85;7.55;;;;;;;;;;4961022;28;20505;-69
2022/03/26 12:54:17;;;;;;;10.55;7.18;;;;;;;;;;4957771;29;20450;-69
2022/03/26 12:56:43;;;;;;;12.55;7.93;;;;;;;;;;4975537;28;20114;-69
2022/03/26 12:59:12;;;;;;;12.60;7.45;;;;;;;;;;4976662;28;20422;-68
2022/03/26 13:01:38;;;;;;;11.40;7.90;;;;;;;;;;4976578;28;20050;-69
2022/03/26 13:04:04;;;;;;;11.63;7.28;;;;;;;;;;4974279;28;20101;-70
2022/03/26 13:06:31;;;;;;;11.48;7.22;;;;;;;;;;4966584;28;20039;-69
2022/03/26 13:08:58;;;;;;;9.88;6.82;;;;;;;;;;4976853;28;20050;-70
2022/03/26 13:11:27;;;;;;;10.10;5.93;;;;;;;;;;4976713;28;20090;-70
2022/03/26 13:13:55;;;;;;;9.88;5.68;;;;;;;;;;4975432;28;20086;-69
2022/03/26 13:16:24;;;;;;;10.82;5.80;;;;;;;;;;4971765;28;20078;-69
2022/03/26 13:19:12;;;;;;;11.13;6.45;;;;;;;;;;4963662;28;20094;-69
2022/03/26 13:21:48;;;;;;;11.85;6.70;;;;;;;;;;4975642;28;20050;-69
2022/03/26 13:24:16;;;;;;;9.98;6.85;;;;;;;;;;4965044;28;20097;-70
2022/03/26 13:27:01;;;;;;;10.05;5.55;;;;;;;;;;4975415;28;20050;-70
2022/03/26 13:29:28;;;;;;;11.18;5.88;;;;;;;;;;4976389;28;20110;-70
2022/03/26 13:31:57;;;;;;;9.82;4.63;;;;;;;;;;4976159;28;20047;-70
2022/03/26 13:34:30;;;;;;;17.45;4.50;;;;;;;;;;4975312;28;20106;-70
2022/03/26 13:36:57;;;;;;;8.45;4.10;;;;;;;;;;4976161;28;20050;-70
2022/03/26 13:39:26;;;;;;;7.93;3.70;;;;;;;;;;4975116;28;20561;-69
2022/03/26 13:41:52;;;;;;;11.57;4.10;;;;;;;;;;4975117;28;20082;-69
2022/03/26 13:44:23;;;;;;;7.93;3.97;;;;;;;;;;4975925;28;20458;-69
2022/03/26 13:46:50;;;;;;;11.05;4.60;;;;;;;;;;4965873;28;20106;-69
2022/03/26 13:49:26;;;;;;;9.55;5.07;;;;;;;;;;4975790;28;20494;-69
2022/03/26 13:51:52;;;;;;;8.40;4.30;;;;;;;;;;4967030;28;20134;-68
2022/03/26 13:54:27;;;;;;;11.15;4.03;;;;;;;;;;4969675;28;20043;-69
2022/03/26 13:56:55;;;;;;;10.52;3.80;;;;;;;;;;4975834;28;20138;-69
2022/03/26 13:59:24;;;;;;;9.20;4.55;;;;;;;;;;4975326;28;20534;-69
2022/03/26 14:01:51;;;;;;;9.43;4.57;;;;;;;;;;4973936;28;20046;-69
2022/03/26 14:04:28;;;;;;;9.43;4.90;;;;;;;;;;4975729;28;20059;-70
2022/03/26 14:06:54;;;;;;;14.00;6.00;;;;;;;;;;4967016;28;20039;-69
2022/03/26 14:09:22;;;;;;;9.75;5.88;;;;;;;;;;4974123;28;20070;-69
2022/03/26 14:11:48;;;;;;;9.88;4.88;;;;;;;;;;4975803;28;20054;-69
2022/03/26 14:14:14;;;;;;;9.07;4.20;;;;;;;;;;4974538;28;20047;-70
2022/03/26 14:16:40;;;;;;;8.98;5.20;;;;;;;;;;4975672;28;20061;-70
2022/03/26 14:19:07;;;;;;;11.23;4.68;;;;;;;;;;4975159;28;20082;-70
2022/03/26 14:21:33;;;;;;;10.73;5.05;;;;;;;;;;4974974;28;20106;-69
2022/03/26 14:23:59;;;;;;;8.32;4.65;;;;;;;;;;4975231;28;20038;-70
2022/03/26 14:26:25;;;;;;;7.18;4.18;;;;;;;;;;4975242;28;20038;-70